Fall City, Washington
Current Conditions -  °F | °C
As of 10:53 PM on Wednesday 22 Oct 2014 (Local Time) from KRNT Reporting Station
Broken Clouds Broken Clouds  
Wind Chill: 58°   Ceiling: 11000
Heat Index: 58°   Visibility: 10mi
Dew Point: 52°   Wind: 7mph
Humidity: 81%   Direction: 150°SSE
Pressure: 29.69"   Gusts: NA
Location:  47.57°N, 121.89°W
Report Text: KRNT 230553Z AUTO 15006KT 10SM SCT046 SCT075 BKN110 14/11 A2969 RMK AO2 PRESRR SLP057 60012 T01440111 10150 20128 53039
Loading
Personal Weather Stations






























Interactive Weather Map
Tropical Storm Tracking
New forecast layout! Learn more

10-Day Weather Forecast

Advertisements
Track Severe Weather on mobile